createdAt,value
2018-11-23T00:05:07.403Z,22.07
2018-11-23T00:10:24.160Z,23.67
2018-11-23T00:15:39.419Z,21.73
2018-11-23T00:20:54.782Z,25.70
2018-11-23T00:25:57.523Z,19.23
2018-11-23T00:31:00.601Z,21.23
2018-11-23T00:36:03.619Z,19.47
2018-11-23T00:42:01.624Z,22.30
2018-11-23T00:47:05.244Z,23.87
2018-11-23T00:52:08.761Z,23.23
2018-11-23T00:57:12.566Z,21.53
2018-11-23T01:02:16.220Z,23.50
2018-11-23T01:07:20.460Z,28.90
2018-11-23T01:12:24.529Z,25.27
2018-11-23T01:17:35.816Z,26.73
2018-11-23T01:22:39.792Z,25.57
2018-11-23T01:27:51.254Z,26.57
2018-11-23T01:32:54.641Z,25.00
2018-11-23T01:37:58.473Z,26.77
2018-11-23T01:43:02.030Z,23.47
2018-11-23T01:48:05.873Z,25.67
2018-11-23T01:53:12.580Z,25.00
2018-11-23T01:58:16.902Z,25.03
2018-11-23T02:03:20.276Z,24.10
2018-11-23T02:08:23.913Z,25.93
2018-11-23T02:13:27.991Z,31.57
2018-11-23T02:18:31.487Z,27.73
2018-11-23T02:23:35.124Z,26.57
2018-11-23T02:28:38.785Z,25.53
2018-11-23T02:33:42.648Z,26.33
2018-11-23T02:38:46.086Z,30.37
2018-11-23T02:43:55.267Z,27.90
2018-11-23T02:48:58.826Z,27.77
2018-11-23T02:54:02.597Z,24.77
2018-11-23T02:59:06.352Z,33.27
2018-11-23T03:04:11.307Z,31.63
2018-11-23T03:09:17.851Z,29.40
2018-11-23T03:14:27.138Z,29.83
2018-11-23T03:19:33.399Z,22.77
2018-11-23T03:24:37.185Z,34.13
2018-11-23T03:29:40.789Z,23.27
2018-11-23T03:34:44.753Z,31.17
2018-11-23T03:39:49.121Z,30.87
2018-11-23T03:50:22.987Z,29.90
2018-11-23T03:55:31.470Z,31.83
2018-11-23T04:00:34.992Z,39.00
2018-11-23T04:05:39.297Z,30.03
2018-11-23T04:10:45.771Z,30.63
2018-11-23T04:15:49.173Z,30.53
2018-11-23T04:20:59.801Z,37.33
2018-11-23T04:26:03.881Z,33.07
2018-11-23T04:31:07.986Z,30.37
2018-11-23T04:36:11.993Z,28.97
2018-11-23T04:41:24.151Z,32.67
2018-11-23T04:46:29.165Z,31.97
2018-11-23T04:51:37.856Z,33.13
2018-11-23T04:56:49.688Z,30.43
2018-11-23T05:01:54.253Z,30.80
2018-11-23T05:06:57.872Z,30.47
2018-11-23T05:12:02.668Z,28.50
2018-11-23T05:17:06.361Z,32.77
2018-11-23T05:22:10.982Z,38.13
2018-11-23T05:27:19.874Z,34.80
2018-11-23T05:32:26.054Z,29.77
2018-11-23T05:37:31.633Z,38.50
2018-11-23T05:42:40.484Z,34.87
2018-11-23T05:47:45.141Z,21.70
2018-11-23T05:53:12.777Z,34.87
2018-11-23T05:58:19.493Z,35.73
2018-11-23T06:03:25.093Z,35.37
2018-11-23T06:08:28.812Z,33.37
2018-11-23T06:13:32.883Z,34.00
2018-11-23T06:18:36.208Z,38.10
2018-11-23T06:23:42.492Z,31.30
2018-11-23T06:28:46.109Z,39.83
2018-11-23T06:33:53.051Z,40.30
2018-11-23T06:38:57.357Z,37.47
2018-11-23T06:44:04.876Z,32.70
2018-11-23T06:49:09.136Z,31.10
2018-11-23T06:54:15.428Z,38.13
2018-11-23T06:59:18.896Z,24.97
2018-11-23T07:04:22.614Z,37.13
2018-11-23T07:09:27.752Z,38.20
2018-11-23T07:14:31.679Z,35.43
2018-11-23T07:19:36.067Z,40.40
2018-11-23T07:24:39.516Z,37.23
2018-11-23T07:29:45.828Z,42.17
2018-11-23T07:34:49.337Z,38.83
2018-11-23T07:40:06.003Z,33.03
2018-11-23T07:45:09.551Z,28.83
2018-11-23T07:50:13.985Z,39.13
2018-11-23T07:55:17.599Z,31.50
2018-11-23T08:00:22.689Z,35.80
2018-11-23T08:05:26.188Z,33.37
2018-11-23T08:10:28.982Z,33.07
2018-11-23T08:15:32.774Z,35.33
2018-11-23T08:20:37.041Z,32.10
2018-11-23T08:25:40.917Z,27.70
2018-11-23T08:30:44.551Z,31.47
2018-11-23T08:35:49.017Z,31.33
2018-11-23T08:40:52.793Z,33.33
2018-11-23T08:45:56.212Z,26.20
2018-11-23T08:50:59.524Z,29.97
2018-11-23T08:56:05.668Z,33.70
2018-11-23T09:01:09.555Z,35.00
2018-11-23T09:06:13.288Z,27.97
2018-11-23T09:11:16.945Z,28.03
2018-11-23T09:16:21.532Z,32.03
2018-11-23T09:21:32.369Z,28.20
2018-11-23T09:26:35.941Z,30.73
2018-11-23T09:31:39.805Z,42.73
2018-11-23T09:36:43.184Z,28.30
2018-11-23T09:41:46.529Z,30.77
2018-11-23T09:46:49.855Z,30.53
2018-11-23T09:51:53.152Z,24.37
2018-11-23T09:56:56.483Z,26.00
2018-11-23T10:02:05.131Z,29.30
2018-11-23T10:07:09.370Z,22.97
2018-11-23T10:12:13.589Z,19.10
2018-11-23T10:17:17.634Z,24.20
2018-11-23T10:22:20.987Z,28.63
2018-11-23T10:27:25.008Z,24.03
2018-11-23T10:32:28.716Z,24.77
2018-11-23T10:37:32.675Z,21.70
2018-11-23T10:42:41.177Z,23.27
2018-11-23T10:47:44.732Z,21.60
2018-11-23T10:52:48.311Z,25.67
2018-11-23T10:57:51.748Z,22.43
2018-11-23T11:03:02.034Z,22.93
2018-11-23T11:08:07.023Z,21.77
2018-11-23T11:13:11.153Z,19.30
2018-11-23T11:18:14.979Z,21.40
2018-11-23T11:23:23.322Z,19.33
2018-11-23T11:28:27.108Z,20.70
2018-11-23T11:33:30.416Z,20.60
2018-11-23T11:38:33.892Z,22.30
2018-11-23T11:43:38.071Z,22.27
2018-11-23T11:48:42.366Z,23.70
2018-11-23T11:53:45.745Z,24.83
2018-11-23T11:58:54.249Z,20.43
2018-11-23T12:03:57.928Z,19.97
2018-11-23T12:09:01.237Z,22.03
2018-11-23T12:14:05.538Z,19.90
2018-11-23T12:19:09.205Z,23.43
2018-11-23T12:24:13.958Z,20.43
2018-11-23T12:29:18.553Z,19.50
2018-11-23T12:34:23.753Z,21.23
2018-11-23T12:39:27.224Z,20.67
2018-11-23T12:44:30.964Z,22.17
2018-11-23T12:49:39.283Z,23.30
2018-11-23T12:54:42.792Z,23.63
2018-11-23T12:59:46.662Z,23.47
2018-11-23T13:04:57.515Z,13.03
2018-11-23T13:10:05.033Z,23.10
2018-11-23T13:15:08.554Z,23.17
2018-11-23T13:20:14.085Z,20.00
2018-11-23T13:25:19.336Z,23.20
2018-11-23T13:30:25.090Z,20.57
2018-11-23T13:35:34.992Z,21.50
2018-11-23T13:40:40.115Z,22.40
2018-11-23T13:45:43.480Z,19.20
2018-11-23T13:50:48.036Z,22.83
2018-11-23T13:55:51.912Z,19.30
2018-11-23T14:00:55.285Z,19.97
2018-11-23T14:05:58.725Z,21.87
2018-11-23T14:11:03.465Z,21.67
2018-11-23T14:16:06.887Z,19.50
2018-11-23T14:21:10.536Z,20.83
2018-11-23T14:26:14.163Z,19.10
2018-11-23T14:31:17.712Z,18.60
2018-11-23T14:36:21.174Z,18.80
2018-11-23T14:41:24.640Z,20.83
2018-11-23T14:46:28.030Z,20.00
2018-11-23T14:51:32.002Z,18.80
2018-11-23T14:56:35.982Z,20.97
2018-11-23T15:01:39.343Z,19.37
2018-11-23T15:06:45.726Z,18.90
2018-11-23T15:11:59.072Z,17.93
2018-11-23T15:17:02.700Z,19.77
2018-11-23T15:22:06.579Z,20.53
2018-11-23T15:27:13.456Z,19.33
2018-11-23T15:32:17.132Z,19.23
2018-11-23T15:37:20.486Z,18.40
2018-11-23T15:42:28.689Z,18.97
2018-11-23T15:47:35.424Z,18.43
2018-11-23T15:52:39.373Z,19.83
2018-11-23T15:57:43.517Z,18.70
2018-11-23T16:03:01.324Z,18.77
2018-11-23T16:08:11.891Z,20.43
2018-11-23T16:13:17.626Z,20.90
2018-11-23T16:18:21.693Z,22.63
2018-11-23T16:23:27.539Z,18.77
2018-11-23T16:28:31.810Z,20.70
2018-11-23T16:33:35.665Z,21.23
2018-11-23T16:38:39.735Z,21.53
2018-11-23T16:43:43.519Z,19.60
2018-11-23T16:48:47.792Z,22.20
2018-11-23T16:53:51.628Z,19.47
2018-11-23T16:59:08.192Z,22.87
2018-11-23T17:04:11.494Z,23.43
2018-11-23T17:09:15.029Z,24.93
2018-11-23T17:14:18.666Z,21.20
2018-11-23T17:19:23.031Z,25.20
2018-11-23T17:24:26.364Z,23.07
2018-11-23T17:29:30.189Z,24.07
2018-11-23T17:34:35.697Z,25.03
2018-11-23T17:39:38.972Z,21.00
2018-11-23T17:44:44.339Z,23.33
2018-11-23T17:49:51.465Z,22.90
2018-11-23T17:54:59.324Z,30.03
2018-11-23T18:00:08.712Z,24.87
2018-11-23T18:05:18.458Z,30.33
2018-11-23T18:10:25.700Z,24.10
2018-11-23T18:15:30.728Z,24.77
2018-11-23T18:20:34.854Z,24.00
2018-11-23T18:25:40.469Z,22.53
2018-11-23T18:30:44.102Z,25.87
2018-11-23T18:35:48.324Z,24.47
2018-11-23T18:40:52.159Z,22.27
2018-11-23T18:45:56.080Z,26.07
2018-11-23T18:51:04.940Z,24.97
2018-11-23T18:56:08.961Z,23.87
2018-11-23T19:01:17.417Z,22.00
2018-11-23T19:06:21.391Z,36.53
2018-11-23T19:11:26.120Z,25.77
2018-11-23T19:16:30.224Z,27.30
2018-11-23T19:21:40.947Z,25.90
2018-11-23T19:26:48.894Z,21.23
2018-11-23T19:31:53.857Z,25.63
2018-11-23T19:36:57.852Z,18.23
2018-11-23T19:42:07.961Z,25.60
2018-11-23T19:47:16.250Z,20.87
2018-11-23T19:52:20.052Z,23.60
2018-11-23T19:57:23.703Z,22.80
2018-11-23T20:02:27.709Z,25.70
2018-11-23T20:07:32.782Z,24.50
2018-11-23T20:12:37.709Z,25.63
2018-11-23T20:17:42.693Z,21.17
2018-11-23T20:22:48.539Z,21.27
2018-11-23T20:27:53.373Z,23.43
2018-11-23T20:32:57.815Z,28.93
2018-11-23T20:38:01.531Z,23.93
2018-11-23T20:43:06.423Z,21.87
2018-11-23T20:48:10.548Z,26.60
2018-11-23T20:53:14.952Z,22.00
2018-11-23T20:58:19.040Z,23.93
2018-11-23T21:03:23.728Z,23.40
2018-11-23T21:08:27.647Z,23.30
2018-11-23T21:13:31.323Z,26.87
2018-11-23T21:18:34.996Z,28.20
2018-11-23T21:23:42.294Z,29.00
2018-11-23T21:28:48.934Z,26.57
2018-11-23T21:33:52.614Z,32.87
2018-11-23T21:38:56.594Z,27.80
2018-11-23T21:44:00.616Z,26.80
2018-11-23T21:49:04.803Z,26.63
2018-11-23T21:54:13.935Z,26.87
2018-11-23T21:59:18.053Z,26.97
2018-11-23T22:04:22.064Z,29.87
2018-11-23T22:09:26.036Z,31.80
2018-11-23T22:14:30.066Z,29.00
2018-11-23T22:19:34.024Z,41.97
2018-11-23T22:24:38.328Z,34.77
2018-11-23T22:29:42.852Z,28.70
2018-11-23T22:34:47.408Z,27.50
2018-11-23T22:40:09.493Z,31.70
2018-11-23T22:45:16.993Z,23.67
2018-11-23T22:50:21.842Z,31.27
2018-11-23T22:55:27.580Z,25.30
2018-11-23T23:00:46.076Z,24.47
2018-11-23T23:05:50.152Z,22.87
2018-11-23T23:10:58.408Z,23.33
2018-11-23T23:16:02.526Z,22.07
2018-11-23T23:21:06.202Z,24.83
2018-11-23T23:26:09.933Z,21.70
2018-11-23T23:31:13.748Z,21.17
2018-11-23T23:36:17.725Z,25.17
2018-11-23T23:41:21.964Z,21.17
2018-11-23T23:46:40.483Z,22.93
2018-11-23T23:51:48.392Z,45.17
2018-11-23T23:56:52.313Z,39.90
